首页
METAR-TAF:

METAR-TAF

机场 :

柏林-舍讷费尔德机场

柏林舍訥費爾德國際機場, 德国

纬度: 52-23N, 经度: 013-31E, 海拔: 47米

当前天气观测

该预报发布于43分钟前的00:20 UTC
风速8节,风向
温度 9°C
湿度 93%
气压 1005 hPa
能见度10公里或以上
1500米以下无云,无积雨云

METAR: EDDB 180020Z 08008KT CAVOK 09/08 Q1005 NOSIG

时间: 02:03 (01:03 UTC)

预报

该预报发布于2小时和3分钟前的23:00 UTC
预报有效从18日的 00点(UTC)到 18日的 24点(UTC)
风速8节,风向
能见度10公里或以上
少量云层高于3000英尺
短暂存在
从 18日的 09点(UTC)到 18日的 15点(UTC)
多云层高于1000英尺
成为
从 18日的 10点(UTC)到 18日的 12点(UTC)
风速8节,风向

TAF: EDDB 172300Z 1800/1824 10008KT 9999 FEW030 TEMPO 1809/1815 BKN010 BECMG 1810/1812 18008KT

超过4000个机场的气象观测和天气预报(METAR&TAF报告)。

可查询的气象台以黄色和红色小点在地图上表示。

将鼠标移到小点上方,可查看气象台名称。

然后点击查看天气观测和预报。

如需切换地图:点击带黑十字的绿色按钮放大地图;点击带横线的绿色按钮缩小地图;或者点击绿色箭头查看邻近地区的地图。


METAR-TAF: